createdAt,value
2023-05-22T00:01:48.944Z,11.34
2023-05-22T00:04:22.527Z,11.27
2023-05-22T00:06:50.729Z,11.20
2023-05-22T00:09:17.755Z,11.13
2023-05-22T00:11:45.308Z,11.08
2023-05-22T00:14:15.735Z,11.03
2023-05-22T00:16:42.508Z,11.01
2023-05-22T00:19:12.855Z,10.98
2023-05-22T00:21:39.734Z,10.94
2023-05-22T00:24:06.783Z,10.88
2023-05-22T00:26:33.624Z,10.82
2023-05-22T00:29:00.585Z,10.76
2023-05-22T00:31:28.451Z,10.71
2023-05-22T00:33:55.525Z,10.66
2023-05-22T00:36:22.442Z,10.60
2023-05-22T00:38:49.165Z,10.55
2023-05-22T00:41:16.110Z,10.50
2023-05-22T00:43:45.003Z,10.47
2023-05-22T00:46:12.237Z,10.41
2023-05-22T00:48:39.099Z,10.34
2023-05-22T00:51:06.457Z,10.32
2023-05-22T00:53:33.511Z,10.32
2023-05-22T00:56:00.649Z,10.30
2023-05-22T00:58:27.612Z,10.25
2023-05-22T01:00:55.053Z,10.22
2023-05-22T01:03:25.975Z,10.18
2023-05-22T01:05:53.958Z,10.13
2023-05-22T01:08:21.108Z,10.07
2023-05-22T01:10:51.533Z,10.02
2023-05-22T01:13:18.278Z,9.98
2023-05-22T01:15:55.371Z,9.94
2023-05-22T01:18:29.671Z,9.89
2023-05-22T01:21:03.680Z,9.87
2023-05-22T01:23:42.504Z,9.86
2023-05-22T01:26:18.764Z,9.81
2023-05-22T01:29:01.485Z,9.76
2023-05-22T01:31:30.583Z,9.68
2023-05-22T01:34:00.251Z,9.61
2023-05-22T01:36:30.712Z,9.56
2023-05-22T01:39:00.933Z,9.53
2023-05-22T01:41:28.796Z,9.49
2023-05-22T01:43:56.260Z,9.45
2023-05-22T01:46:27.175Z,9.41
2023-05-22T01:48:54.557Z,9.37
2023-05-22T01:51:34.097Z,9.33
2023-05-22T01:54:07.000Z,9.25
2023-05-22T01:56:38.834Z,9.17
2023-05-22T01:59:25.035Z,9.09
2023-05-22T02:01:53.617Z,9.05
2023-05-22T02:04:22.295Z,9.03
2023-05-22T02:06:51.702Z,9.03
2023-05-22T02:09:20.404Z,9.03
2023-05-22T02:11:47.788Z,9.02
2023-05-22T02:14:15.708Z,8.98
2023-05-22T02:16:47.260Z,8.92
2023-05-22T02:19:14.871Z,8.90
2023-05-22T02:21:41.866Z,8.88
2023-05-22T02:24:08.815Z,8.86
2023-05-22T02:26:36.795Z,8.82
2023-05-22T02:29:03.631Z,8.78
2023-05-22T02:31:30.522Z,8.76
2023-05-22T02:33:57.324Z,8.74
2023-05-22T02:36:25.890Z,8.73
2023-05-22T02:38:52.626Z,8.73
2023-05-22T02:41:19.365Z,8.72
2023-05-22T02:43:46.127Z,8.74
2023-05-22T02:46:13.019Z,8.74
2023-05-22T02:48:40.308Z,8.74
2023-05-22T02:51:07.250Z,8.73
2023-05-22T02:53:35.116Z,8.75
2023-05-22T02:56:02.676Z,8.77
2023-05-22T02:58:29.523Z,8.91
2023-05-22T03:00:56.664Z,9.31
2023-05-22T03:03:29.291Z,9.83
2023-05-22T03:05:57.923Z,10.35
2023-05-22T03:08:27.943Z,10.80
2023-05-22T03:10:56.220Z,11.24
2023-05-22T03:13:23.269Z,11.67
2023-05-22T03:15:50.441Z,12.07
2023-05-22T03:18:17.780Z,12.33
2023-05-22T03:20:45.238Z,12.78
2023-05-22T03:23:12.991Z,13.24
2023-05-22T03:25:39.841Z,13.66
2023-05-22T03:28:06.681Z,14.06
2023-05-22T03:30:36.301Z,14.44
2023-05-22T03:33:11.378Z,14.94
2023-05-22T03:35:38.778Z,15.43
2023-05-22T03:38:05.726Z,15.94
2023-05-22T03:40:32.465Z,16.23
2023-05-22T03:43:00.228Z,16.65
2023-05-22T03:45:27.307Z,17.11
2023-05-22T03:47:54.411Z,17.56
2023-05-22T03:50:21.380Z,18.11
2023-05-22T03:52:48.117Z,18.47
2023-05-22T03:55:15.869Z,18.74
2023-05-22T03:57:42.723Z,18.94
2023-05-22T04:00:11.501Z,19.29
2023-05-22T04:02:44.483Z,19.68
2023-05-22T04:05:11.572Z,20.04
2023-05-22T04:07:38.495Z,20.29
2023-05-22T04:10:06.034Z,20.47
2023-05-22T04:12:33.292Z,20.84
2023-05-22T04:15:00.044Z,21.08
2023-05-22T04:17:33.708Z,21.08
2023-05-22T04:20:00.713Z,21.35
2023-05-22T04:22:30.384Z,21.51
2023-05-22T04:24:57.650Z,21.91
2023-05-22T04:27:26.017Z,22.26
2023-05-22T04:29:53.297Z,22.59
2023-05-22T04:32:21.569Z,22.89
2023-05-22T04:34:50.530Z,23.13
2023-05-22T04:37:19.222Z,23.59
2023-05-22T04:39:46.368Z,24.02
2023-05-22T04:42:14.135Z,24.46
2023-05-22T04:44:41.485Z,24.89
2023-05-22T04:47:13.999Z,25.03
2023-05-22T04:49:45.215Z,25.14
2023-05-22T04:52:12.049Z,25.12
2023-05-22T04:54:38.911Z,25.40
2023-05-22T04:57:05.840Z,25.92
2023-05-22T04:59:39.595Z,26.38
2023-05-22T05:02:06.789Z,26.87
2023-05-22T05:04:33.635Z,27.03
2023-05-22T05:07:02.119Z,27.35
2023-05-22T05:09:28.954Z,27.80
2023-05-22T05:11:55.800Z,27.83
2023-05-22T05:14:22.748Z,26.70
2023-05-22T05:16:54.330Z,27.39
2023-05-22T05:19:21.585Z,27.40
2023-05-22T05:21:51.972Z,27.73
2023-05-22T05:24:19.126Z,28.10
2023-05-22T05:26:46.881Z,28.24
2023-05-22T05:29:15.467Z,28.63
2023-05-22T05:31:49.500Z,28.43
2023-05-22T05:34:51.956Z,28.74
2023-05-22T05:37:43.172Z,29.82
2023-05-22T05:40:13.924Z,29.79
2023-05-22T05:42:45.992Z,29.85
2023-05-22T05:45:15.375Z,30.06
2023-05-22T05:47:42.960Z,30.44
2023-05-22T05:50:10.831Z,30.59
2023-05-22T05:52:39.072Z,30.51
2023-05-22T05:55:11.146Z,29.98
2023-05-22T05:57:38.049Z,29.97
2023-05-22T06:00:10.116Z,30.69
2023-05-22T06:02:43.286Z,30.22
2023-05-22T06:05:22.845Z,29.89
2023-05-22T06:07:52.382Z,29.99
2023-05-22T06:10:19.278Z,29.91
2023-05-22T06:13:00.361Z,30.22
2023-05-22T06:15:29.579Z,30.56
2023-05-22T06:17:57.436Z,29.97
2023-05-22T06:20:25.751Z,29.80
2023-05-22T06:22:52.601Z,29.04
2023-05-22T06:25:20.153Z,28.54
2023-05-22T06:27:47.711Z,28.27
2023-05-22T06:30:22.433Z,27.57
2023-05-22T06:32:56.816Z,27.84
2023-05-22T06:35:25.126Z,27.32
2023-05-22T06:37:52.081Z,26.71
2023-05-22T06:40:19.022Z,27.33
2023-05-22T06:42:52.003Z,27.44
2023-05-22T06:45:38.039Z,26.88
2023-05-22T06:48:24.941Z,27.02
2023-05-22T06:51:21.342Z,26.56
2023-05-22T06:53:51.053Z,26.34
2023-05-22T06:56:22.402Z,25.93
2023-05-22T06:58:53.440Z,26.17
2023-05-22T07:01:21.331Z,26.31
2023-05-22T07:04:04.655Z,26.43
2023-05-22T07:06:41.132Z,26.39
2023-05-22T07:09:08.683Z,26.07
2023-05-22T07:11:35.520Z,26.48
2023-05-22T07:14:02.653Z,26.61
2023-05-22T07:16:30.848Z,26.93
2023-05-22T07:18:58.024Z,26.91
2023-05-22T07:21:25.657Z,26.71
2023-05-22T07:23:52.580Z,26.22
2023-05-22T07:26:19.336Z,25.64
2023-05-22T07:28:51.997Z,25.32
2023-05-22T07:31:18.767Z,25.28
2023-05-22T07:33:46.006Z,25.42
2023-05-22T07:36:12.937Z,25.39
2023-05-22T07:38:41.416Z,25.61
2023-05-22T07:41:08.470Z,25.89
2023-05-22T07:43:35.772Z,25.62
2023-05-22T07:46:05.570Z,25.37
2023-05-22T07:48:36.635Z,25.66
2023-05-22T07:51:03.663Z,25.73
2023-05-22T07:53:31.294Z,25.68
2023-05-22T07:55:58.785Z,25.83
2023-05-22T07:58:26.503Z,25.65
2023-05-22T08:00:53.979Z,25.77
2023-05-22T08:03:23.871Z,25.48
2023-05-22T08:05:51.148Z,25.40
2023-05-22T08:08:17.959Z,25.69
2023-05-22T08:11:01.899Z,25.42
2023-05-22T08:13:30.800Z,25.57
2023-05-22T08:16:00.349Z,25.64
2023-05-22T08:18:28.574Z,26.13
2023-05-22T08:20:55.435Z,26.43
2023-05-22T08:23:22.174Z,26.41
2023-05-22T08:25:49.915Z,26.68
2023-05-22T08:28:16.881Z,26.55
2023-05-22T08:30:44.130Z,26.78
2023-05-22T08:33:11.484Z,26.87
2023-05-22T08:35:38.203Z,26.44
2023-05-22T08:38:04.971Z,26.90
2023-05-22T08:40:39.762Z,27.02
2023-05-22T08:43:06.848Z,26.66
2023-05-22T08:45:34.030Z,26.70
2023-05-22T08:48:05.630Z,26.63
2023-05-22T08:50:34.319Z,27.21
2023-05-22T08:53:04.327Z,26.90
2023-05-22T08:55:31.085Z,27.30
2023-05-22T08:57:58.527Z,27.71
2023-05-22T09:00:25.378Z,27.77
2023-05-22T09:02:52.204Z,28.12
2023-05-22T09:05:19.387Z,28.17
2023-05-22T09:07:48.458Z,27.71
2023-05-22T09:10:17.780Z,27.75
2023-05-22T09:13:03.846Z,26.85
2023-05-22T09:15:32.027Z,26.64
2023-05-22T09:17:59.202Z,27.16
2023-05-22T09:20:26.529Z,27.49
2023-05-22T09:22:53.477Z,27.86
2023-05-22T09:25:21.160Z,28.08
2023-05-22T09:27:48.384Z,27.67
2023-05-22T09:30:16.664Z,27.57
2023-05-22T09:32:44.083Z,27.61
2023-05-22T09:35:11.174Z,26.81
2023-05-22T09:37:37.963Z,26.74
2023-05-22T09:40:13.330Z,26.53
2023-05-22T09:42:44.008Z,26.48
2023-05-22T09:45:11.252Z,26.75
2023-05-22T09:47:38.428Z,26.37
2023-05-22T09:50:06.905Z,26.64
2023-05-22T09:52:34.846Z,26.51
2023-05-22T09:55:06.292Z,26.43
2023-05-22T09:57:36.920Z,26.35
2023-05-22T10:00:08.788Z,26.57
2023-05-22T10:02:41.367Z,26.91
2023-05-22T10:05:09.084Z,26.87
2023-05-22T10:07:39.252Z,27.08
2023-05-22T10:10:11.512Z,27.08
2023-05-22T10:12:43.164Z,27.32
2023-05-22T10:15:10.828Z,27.27
2023-05-22T10:17:37.881Z,27.10
2023-05-22T10:20:07.380Z,27.04
2023-05-22T10:22:36.365Z,26.63
2023-05-22T10:25:03.419Z,26.34
2023-05-22T10:27:30.576Z,26.45
2023-05-22T10:30:12.868Z,26.74
2023-05-22T10:32:44.779Z,27.05
2023-05-22T10:35:20.988Z,26.93
2023-05-22T10:38:14.173Z,26.70
2023-05-22T10:40:41.716Z,26.30
2023-05-22T10:43:08.554Z,26.03
2023-05-22T10:45:36.153Z,26.27
2023-05-22T10:48:06.911Z,26.55
2023-05-22T10:50:34.509Z,26.98
2023-05-22T10:53:23.157Z,27.00
2023-05-22T10:55:50.826Z,27.00
2023-05-22T10:58:18.486Z,27.41
2023-05-22T11:00:45.238Z,27.03
2023-05-22T11:03:18.066Z,26.95
2023-05-22T11:05:51.718Z,26.66
2023-05-22T11:08:27.735Z,25.96
2023-05-22T11:10:55.693Z,25.65
2023-05-22T11:13:28.152Z,25.45
2023-05-22T11:15:58.409Z,25.34
2023-05-22T11:18:28.285Z,24.98
2023-05-22T11:20:55.597Z,25.13
2023-05-22T11:23:24.800Z,25.23
2023-05-22T11:25:51.646Z,25.11
2023-05-22T11:28:19.100Z,25.35
2023-05-22T11:30:46.667Z,25.69
2023-05-22T11:33:14.110Z,25.87
2023-05-22T11:35:42.901Z,25.75
2023-05-22T11:38:10.036Z,25.90
2023-05-22T11:40:36.959Z,26.13
2023-05-22T11:43:04.171Z,26.33
2023-05-22T11:45:30.870Z,26.27
2023-05-22T11:47:57.821Z,26.09
2023-05-22T11:50:40.280Z,25.72
2023-05-22T11:53:09.170Z,25.39
2023-05-22T11:55:35.996Z,25.34
2023-05-22T11:58:02.778Z,25.37
2023-05-22T12:00:33.847Z,25.49
2023-05-22T12:03:00.886Z,25.31
2023-05-22T12:05:27.790Z,25.28
2023-05-22T12:07:54.716Z,25.33
2023-05-22T12:10:21.520Z,25.01
2023-05-22T12:12:48.404Z,25.19
2023-05-22T12:15:18.684Z,25.19
2023-05-22T12:17:45.457Z,25.08
2023-05-22T12:20:14.114Z,25.04
2023-05-22T12:22:42.591Z,25.07
2023-05-22T12:25:13.744Z,25.07
2023-05-22T12:27:40.582Z,25.09
2023-05-22T12:30:12.456Z,25.23
2023-05-22T12:32:39.881Z,25.13
2023-05-22T12:35:07.191Z,25.09
2023-05-22T12:37:35.349Z,25.27
2023-05-22T12:40:03.391Z,25.40
2023-05-22T12:42:30.246Z,25.33
2023-05-22T12:44:57.723Z,25.39
2023-05-22T12:47:24.943Z,25.39
2023-05-22T12:49:52.000Z,25.31
2023-05-22T12:52:19.039Z,25.26
2023-05-22T12:54:46.116Z,25.36
2023-05-22T12:57:13.204Z,25.36
2023-05-22T12:59:40.062Z,25.20
2023-05-22T13:02:07.018Z,25.36
2023-05-22T13:04:36.348Z,25.37
2023-05-22T13:07:03.673Z,25.14
2023-05-22T13:09:30.552Z,25.05
2023-05-22T13:11:57.500Z,25.07
2023-05-22T13:14:24.331Z,24.99
2023-05-22T13:16:51.023Z,24.98
2023-05-22T13:19:17.897Z,25.02
2023-05-22T13:21:44.727Z,25.07
2023-05-22T13:24:11.339Z,24.97
2023-05-22T13:26:37.998Z,24.87
2023-05-22T13:29:04.744Z,24.77
2023-05-22T13:31:36.801Z,24.80
2023-05-22T13:34:04.174Z,24.75
2023-05-22T13:36:31.085Z,24.70
2023-05-22T13:38:58.249Z,24.76
2023-05-22T13:41:25.068Z,24.81
2023-05-22T13:43:51.837Z,24.81
2023-05-22T13:46:20.424Z,24.82
2023-05-22T13:48:47.082Z,24.83
2023-05-22T13:51:13.894Z,24.79
2023-05-22T13:53:40.744Z,24.61
2023-05-22T13:56:07.658Z,24.51
2023-05-22T13:58:34.377Z,24.55
2023-05-22T14:01:01.417Z,24.43
2023-05-22T14:03:28.159Z,24.44
2023-05-22T14:05:54.949Z,24.34
2023-05-22T14:08:21.803Z,24.37
2023-05-22T14:10:48.648Z,24.41
2023-05-22T14:13:15.477Z,24.37
2023-05-22T14:15:42.828Z,24.26
2023-05-22T14:18:10.821Z,24.08
2023-05-22T14:20:37.588Z,24.13
2023-05-22T14:23:04.372Z,24.20
2023-05-22T14:25:31.117Z,24.25
2023-05-22T14:27:57.865Z,24.26
2023-05-22T14:30:24.698Z,24.25
2023-05-22T14:32:51.740Z,24.22
2023-05-22T14:35:18.698Z,24.21
2023-05-22T14:37:45.543Z,24.19
2023-05-22T14:40:12.478Z,24.14
2023-05-22T14:42:39.218Z,24.18
2023-05-22T14:45:06.376Z,24.21
2023-05-22T14:47:33.251Z,24.18
2023-05-22T14:50:14.849Z,24.16
2023-05-22T14:52:45.651Z,24.07
2023-05-22T14:55:12.488Z,24.01
2023-05-22T14:57:39.749Z,24.02
2023-05-22T15:00:09.196Z,24.00
2023-05-22T15:02:36.311Z,23.98
2023-05-22T15:05:04.220Z,23.92
2023-05-22T15:07:42.934Z,23.95
2023-05-22T15:10:11.485Z,24.00
2023-05-22T15:12:38.740Z,24.02
2023-05-22T15:15:05.964Z,24.00
2023-05-22T15:17:32.838Z,23.98
2023-05-22T15:20:00.188Z,23.96
2023-05-22T15:22:26.997Z,23.90
2023-05-22T15:25:04.895Z,23.86
2023-05-22T15:27:32.561Z,23.81
2023-05-22T15:29:59.298Z,23.85
2023-05-22T15:32:26.180Z,23.87
2023-05-22T15:34:52.998Z,23.88
2023-05-22T15:37:19.724Z,23.86
2023-05-22T15:39:46.563Z,23.84
2023-05-22T15:42:13.519Z,23.80
2023-05-22T15:44:40.579Z,23.79
2023-05-22T15:47:07.400Z,23.78
2023-05-22T15:49:34.146Z,23.75
2023-05-22T15:52:02.416Z,23.71
2023-05-22T15:54:29.271Z,23.67
2023-05-22T15:56:56.303Z,23.62
2023-05-22T15:59:23.250Z,23.60
2023-05-22T16:01:50.485Z,23.59
2023-05-22T16:04:17.346Z,23.58
2023-05-22T16:06:44.098Z,23.55
2023-05-22T16:09:10.829Z,23.52
2023-05-22T16:11:37.779Z,23.50
2023-05-22T16:14:04.607Z,23.47
2023-05-22T16:16:31.746Z,23.41
2023-05-22T16:18:58.764Z,23.37
2023-05-22T16:21:25.752Z,23.33
2023-05-22T16:23:52.641Z,23.30
2023-05-22T16:26:19.538Z,23.23
2023-05-22T16:28:46.279Z,23.15
2023-05-22T16:31:16.446Z,23.08
2023-05-22T16:33:45.291Z,23.02
2023-05-22T16:36:12.145Z,22.92
2023-05-22T16:38:39.079Z,22.89
2023-05-22T16:41:05.928Z,22.87
2023-05-22T16:43:32.675Z,22.82
2023-05-22T16:45:59.620Z,22.80
2023-05-22T16:48:26.511Z,22.78
2023-05-22T16:50:53.493Z,22.76
2023-05-22T16:53:20.343Z,22.72
2023-05-22T16:55:47.295Z,22.69
2023-05-22T16:58:14.444Z,22.66
2023-05-22T17:00:41.437Z,22.66
2023-05-22T17:03:09.302Z,22.64
2023-05-22T17:05:37.760Z,22.60
2023-05-22T17:08:05.174Z,22.57
2023-05-22T17:10:32.020Z,22.53
2023-05-22T17:12:59.074Z,22.49
2023-05-22T17:15:26.111Z,22.44
2023-05-22T17:17:52.928Z,22.39
2023-05-22T17:20:21.744Z,22.32
2023-05-22T17:22:48.788Z,22.26
2023-05-22T17:25:15.737Z,22.19
2023-05-22T17:27:42.587Z,22.12
2023-05-22T17:30:09.728Z,22.03
2023-05-22T17:32:36.781Z,21.96
2023-05-22T17:35:05.869Z,21.91
2023-05-22T17:37:32.913Z,21.84
2023-05-22T17:39:59.783Z,21.76
2023-05-22T17:42:26.606Z,21.71
2023-05-22T17:44:53.442Z,21.64
2023-05-22T17:47:23.698Z,21.57
2023-05-22T17:49:50.645Z,21.51
2023-05-22T17:52:17.763Z,21.44
2023-05-22T17:54:45.097Z,21.36
2023-05-22T17:57:12.565Z,21.27
2023-05-22T17:59:40.555Z,21.20
2023-05-22T18:02:08.521Z,21.10
2023-05-22T18:04:36.920Z,21.03
2023-05-22T18:07:03.701Z,20.94
2023-05-22T18:09:30.564Z,20.88
2023-05-22T18:11:58.674Z,20.81
2023-05-22T18:14:25.445Z,20.72
2023-05-22T18:16:52.268Z,20.62
2023-05-22T18:19:18.994Z,20.51
2023-05-22T18:21:45.798Z,20.40
2023-05-22T18:24:13.277Z,20.31
2023-05-22T18:26:40.712Z,20.20
2023-05-22T18:29:07.457Z,20.07
2023-05-22T18:31:34.275Z,19.93
2023-05-22T18:34:01.143Z,19.80
2023-05-22T18:36:27.876Z,19.68
2023-05-22T18:38:55.337Z,19.55
2023-05-22T18:41:22.087Z,19.45
2023-05-22T18:43:48.879Z,19.40
2023-05-22T18:46:15.569Z,19.25
2023-05-22T18:48:42.511Z,19.24
2023-05-22T18:51:09.450Z,19.18
2023-05-22T18:53:36.293Z,19.11
2023-05-22T18:56:03.277Z,19.05
2023-05-22T18:58:29.927Z,19.00
2023-05-22T19:00:56.612Z,18.95
2023-05-22T19:03:23.877Z,18.90
2023-05-22T19:05:50.861Z,18.83
2023-05-22T19:08:17.732Z,18.72
2023-05-22T19:10:44.455Z,18.61
2023-05-22T19:13:11.065Z,18.54
2023-05-22T19:15:37.781Z,18.48
2023-05-22T19:18:04.688Z,18.40
2023-05-22T19:20:31.654Z,18.32
2023-05-22T19:22:58.498Z,18.21
2023-05-22T19:25:25.369Z,18.11
2023-05-22T19:27:52.281Z,18.05
2023-05-22T19:30:21.454Z,17.97
2023-05-22T19:32:55.052Z,17.85
2023-05-22T19:35:21.843Z,17.76
2023-05-22T19:37:48.990Z,17.70
2023-05-22T19:40:15.774Z,17.65
2023-05-22T19:42:42.661Z,17.54
2023-05-22T19:45:09.706Z,17.42
2023-05-22T19:47:36.607Z,17.31
2023-05-22T19:50:03.608Z,17.23
2023-05-22T19:52:30.378Z,17.16
2023-05-22T19:54:57.175Z,17.13
2023-05-22T19:57:23.922Z,17.08
2023-05-22T19:59:50.978Z,17.03
2023-05-22T20:02:17.691Z,17.00
2023-05-22T20:04:47.750Z,16.97
2023-05-22T20:07:14.970Z,16.94
2023-05-22T20:09:41.771Z,16.90
2023-05-22T20:12:09.883Z,16.86
2023-05-22T20:14:37.268Z,16.83
2023-05-22T20:17:04.282Z,16.79
2023-05-22T20:19:31.981Z,16.75
2023-05-22T20:21:59.098Z,16.72
2023-05-22T20:24:25.947Z,16.70
2023-05-22T20:26:53.087Z,16.65
2023-05-22T20:29:20.237Z,16.60
2023-05-22T20:31:47.672Z,16.52
2023-05-22T20:34:15.049Z,16.46
2023-05-22T20:36:46.190Z,16.40
2023-05-22T20:39:12.928Z,16.33
2023-05-22T20:41:39.780Z,16.27
2023-05-22T20:44:07.428Z,16.22
2023-05-22T20:46:34.457Z,16.16
2023-05-22T20:49:02.967Z,16.07
2023-05-22T20:51:31.975Z,16.01
2023-05-22T20:53:59.262Z,15.97
2023-05-22T20:56:26.427Z,15.93
2023-05-22T20:58:53.679Z,15.90
2023-05-22T21:01:20.465Z,15.88
2023-05-22T21:03:47.443Z,15.83
2023-05-22T21:06:14.560Z,15.76
2023-05-22T21:08:41.385Z,15.70
2023-05-22T21:11:08.224Z,15.65
2023-05-22T21:13:35.175Z,15.60
2023-05-22T21:16:02.035Z,15.43
2023-05-22T21:18:29.372Z,15.30
2023-05-22T21:20:56.109Z,15.23
2023-05-22T21:23:24.490Z,15.17
2023-05-22T21:25:51.639Z,15.10
2023-05-22T21:28:18.478Z,15.06
2023-05-22T21:30:45.428Z,15.04
2023-05-22T21:33:12.173Z,14.99
2023-05-22T21:35:39.113Z,14.95
2023-05-22T21:38:05.954Z,14.90
2023-05-22T21:40:32.639Z,14.87
2023-05-22T21:42:59.432Z,14.85
2023-05-22T21:45:26.185Z,14.84
2023-05-22T21:47:52.867Z,14.82
2023-05-22T21:50:19.607Z,14.78
2023-05-22T21:52:46.241Z,14.75
2023-05-22T21:55:13.033Z,14.72
2023-05-22T21:57:39.693Z,14.68
2023-05-22T22:00:07.442Z,14.65
2023-05-22T22:02:34.158Z,14.62
2023-05-22T22:05:01.226Z,14.58
2023-05-22T22:07:28.058Z,14.55
2023-05-22T22:09:54.796Z,14.51
2023-05-22T22:12:21.535Z,14.46
2023-05-22T22:14:48.478Z,14.42
2023-05-22T22:17:16.452Z,14.36
2023-05-22T22:19:43.801Z,14.33
2023-05-22T22:22:12.183Z,14.29
2023-05-22T22:24:39.022Z,14.27
2023-05-22T22:27:06.071Z,14.22
2023-05-22T22:29:32.916Z,14.19
2023-05-22T22:31:59.711Z,14.15
2023-05-22T22:34:27.418Z,14.11
2023-05-22T22:36:54.260Z,14.08
2023-05-22T22:39:21.517Z,14.04
2023-05-22T22:41:48.268Z,14.00
2023-05-22T22:44:14.991Z,13.94
2023-05-22T22:46:42.424Z,13.86
2023-05-22T22:49:09.630Z,13.80
2023-05-22T22:51:37.156Z,13.73
2023-05-22T22:54:04.422Z,13.67
2023-05-22T22:56:31.269Z,13.64
2023-05-22T22:58:58.096Z,13.61
2023-05-22T23:01:25.082Z,13.58
2023-05-22T23:03:52.075Z,13.54
2023-05-22T23:06:19.029Z,13.49
2023-05-22T23:08:45.875Z,13.45
2023-05-22T23:11:12.614Z,13.41
2023-05-22T23:13:40.716Z,13.35
2023-05-22T23:16:07.565Z,13.30
2023-05-22T23:18:34.877Z,13.23
2023-05-22T23:21:01.724Z,13.20
2023-05-22T23:23:28.665Z,13.16
2023-05-22T23:25:57.351Z,13.14
2023-05-22T23:28:25.627Z,13.12
2023-05-22T23:30:52.371Z,13.07
2023-05-22T23:33:19.218Z,13.04
2023-05-22T23:35:46.055Z,13.01
2023-05-22T23:38:12.833Z,12.98
2023-05-22T23:40:39.692Z,12.92
2023-05-22T23:43:06.678Z,12.85
2023-05-22T23:45:33.634Z,12.82
2023-05-22T23:48:00.425Z,12.80
2023-05-22T23:50:27.206Z,12.77
2023-05-22T23:52:54.050Z,12.74
2023-05-22T23:55:21.516Z,12.71
2023-05-22T23:57:48.452Z,12.68
